createdAt,value
2018-11-14T00:02:21.004Z,79.50
2018-11-14T00:04:50.601Z,107.10
2018-11-14T00:07:21.629Z,76.63
2018-11-14T00:09:49.859Z,80.67
2018-11-14T00:12:18.110Z,86.13
2018-11-14T00:14:46.249Z,65.47
2018-11-14T00:17:14.424Z,42.30
2018-11-14T00:19:42.333Z,58.80
2018-11-14T00:22:11.495Z,44.13
2018-11-14T00:24:39.451Z,60.70
2018-11-14T00:27:09.486Z,94.97
2018-11-14T00:29:37.671Z,56.77
2018-11-14T00:32:07.451Z,41.80
2018-11-14T00:34:35.661Z,47.77
2018-11-14T00:37:03.785Z,25.83
2018-11-14T00:39:31.938Z,34.83
2018-11-14T00:42:00.190Z,26.90
2018-11-14T00:44:28.363Z,39.50
2018-11-14T00:46:57.588Z,32.13
2018-11-14T00:49:25.512Z,31.87
2018-11-14T00:51:53.433Z,38.77
2018-11-14T00:54:22.258Z,40.77
2018-11-14T00:56:50.197Z,31.63
2018-11-14T00:59:20.418Z,25.33
2018-11-14T01:01:48.566Z,26.90
2018-11-14T01:04:18.525Z,25.07
2018-11-14T01:06:46.446Z,37.20
2018-11-14T01:09:14.423Z,21.03
2018-11-14T01:11:45.073Z,30.07
2018-11-14T01:14:13.841Z,25.83
2018-11-14T01:16:42.270Z,28.97
2018-11-14T01:19:12.701Z,30.67
2018-11-14T01:21:40.898Z,42.10
2018-11-14T01:24:09.017Z,36.83
2018-11-14T01:26:37.208Z,69.23
2018-11-14T01:29:06.338Z,61.43
2018-11-14T01:31:35.702Z,80.20
2018-11-14T01:34:04.974Z,80.00
2018-11-14T01:36:34.602Z,73.57
2018-11-14T01:39:02.761Z,50.33
2018-11-14T01:41:30.890Z,61.37
2018-11-14T01:44:00.208Z,54.60
2018-11-14T01:46:29.809Z,46.50
2018-11-14T01:48:58.277Z,16.93
2018-11-14T01:51:26.419Z,30.10
2018-11-14T01:53:54.550Z,18.57
2018-11-14T01:56:22.884Z,72.47
2018-11-14T01:58:52.422Z,39.93
2018-11-14T02:01:22.549Z,39.83
2018-11-14T02:03:50.991Z,83.57
2018-11-14T02:06:19.612Z,66.80
2018-11-14T02:08:49.914Z,121.13
2018-11-14T02:11:18.320Z,93.17
2018-11-14T02:13:48.345Z,49.70
2018-11-14T02:16:16.478Z,150.53
2018-11-14T02:18:44.614Z,42.17
2018-11-14T02:21:13.174Z,97.23
2018-11-14T02:23:41.574Z,63.33
2018-11-14T02:26:09.714Z,119.77
2018-11-14T02:28:40.346Z,128.27
2018-11-14T02:31:09.774Z,88.97
2018-11-14T02:33:37.951Z,132.77
2018-11-14T02:36:05.862Z,96.77
2018-11-14T02:38:34.022Z,119.67
2018-11-14T02:41:02.768Z,115.53
2018-11-14T02:43:31.022Z,87.10
2018-11-14T02:45:59.915Z,156.73
2018-11-14T02:48:27.860Z,100.33
2018-11-14T02:51:01.558Z,105.93
2018-11-14T02:53:29.846Z,75.00
2018-11-14T02:56:05.533Z,100.93
2018-11-14T02:58:34.828Z,95.77
2018-11-14T03:01:04.457Z,61.90
2018-11-14T03:03:32.373Z,45.73
2018-11-14T03:06:00.501Z,86.07
2018-11-14T03:08:28.665Z,66.30
2018-11-14T03:10:57.314Z,69.20
2018-11-14T03:13:26.450Z,68.60
2018-11-14T03:15:55.402Z,56.63
2018-11-14T03:18:23.312Z,50.07
2018-11-14T03:20:51.443Z,46.30
2018-11-14T03:23:20.058Z,49.10
2018-11-14T03:25:47.971Z,33.50
2018-11-14T03:28:16.691Z,35.77
2018-11-14T03:30:45.465Z,50.30
2018-11-14T03:33:13.472Z,19.53
2018-11-14T03:35:47.662Z,57.07
2018-11-14T03:38:16.562Z,87.73
2018-11-14T03:40:45.165Z,48.70
2018-11-14T03:43:13.675Z,77.23
2018-11-14T03:45:42.706Z,40.13
2018-11-14T03:48:11.068Z,64.33
2018-11-14T03:50:41.308Z,45.33
2018-11-14T03:53:09.545Z,30.77
2018-11-14T03:55:37.704Z,58.63
2018-11-14T03:58:06.413Z,52.87
2018-11-14T04:00:34.531Z,32.30
2018-11-14T04:03:04.223Z,46.83
2018-11-14T04:05:32.234Z,50.87
2018-11-14T04:08:00.323Z,39.43
2018-11-14T04:10:29.467Z,49.13
2018-11-14T04:12:59.294Z,43.50
2018-11-14T04:15:27.584Z,51.10
2018-11-14T04:17:56.306Z,55.97
2018-11-14T04:20:24.447Z,38.93
2018-11-14T04:22:54.183Z,45.33
2018-11-14T04:25:22.456Z,59.93
2018-11-14T04:27:50.755Z,32.17
2018-11-14T04:30:21.197Z,46.90
2018-11-14T04:32:49.422Z,46.40
2018-11-14T04:35:18.889Z,40.73
2018-11-14T04:37:46.797Z,32.17
2018-11-14T04:40:18.395Z,36.97
2018-11-14T04:42:46.999Z,88.90
2018-11-14T04:45:16.513Z,86.30
2018-11-14T04:47:45.189Z,36.07
2018-11-14T04:50:17.346Z,97.53
2018-11-14T04:52:46.985Z,51.40
2018-11-14T04:55:17.097Z,47.23
2018-11-14T04:57:46.149Z,39.27
2018-11-14T05:00:17.039Z,27.07
2018-11-14T05:02:45.602Z,34.70
2018-11-14T05:05:14.803Z,66.77
2018-11-14T05:07:42.958Z,45.63
2018-11-14T05:10:12.581Z,33.70
2018-11-14T05:12:41.097Z,25.13
2018-11-14T05:15:10.059Z,33.93
2018-11-14T05:17:38.395Z,32.37
2018-11-14T05:20:07.850Z,36.73
2018-11-14T05:22:36.563Z,40.80
2018-11-14T05:25:04.994Z,38.60
2018-11-14T05:27:32.903Z,37.80
2018-11-14T05:30:01.261Z,32.37
2018-11-14T05:32:30.278Z,59.87
2018-11-14T05:34:59.158Z,43.73
2018-11-14T05:37:28.330Z,28.43
2018-11-14T05:39:56.510Z,68.20
2018-11-14T05:42:25.598Z,25.37
2018-11-14T05:44:53.543Z,36.27
2018-11-14T05:47:21.439Z,51.77
2018-11-14T05:49:50.067Z,36.07
2018-11-14T05:52:18.362Z,15.70
2018-11-14T05:54:47.244Z,33.67
2018-11-14T05:57:15.438Z,16.13
2018-11-14T05:59:43.574Z,54.00
2018-11-14T06:02:11.713Z,28.50
2018-11-14T06:04:40.801Z,25.67
2018-11-14T06:07:09.556Z,17.80
2018-11-14T06:09:37.780Z,37.83
2018-11-14T06:12:06.130Z,56.77
2018-11-14T06:14:35.135Z,57.00
2018-11-14T06:17:04.713Z,53.10
2018-11-14T06:19:32.774Z,48.03
2018-11-14T06:22:02.074Z,136.03
2018-11-14T06:24:30.096Z,18.67
2018-11-14T06:26:58.061Z,125.10
2018-11-14T06:29:26.199Z,54.20
2018-11-14T06:31:54.335Z,20.73
2018-11-14T06:34:23.043Z,46.70
2018-11-14T06:36:51.354Z,13.47
2018-11-14T06:39:20.699Z,46.73
2018-11-14T06:41:50.297Z,52.07
2018-11-14T06:44:18.997Z,58.63
2018-11-14T06:46:46.970Z,42.40
2018-11-14T06:49:15.111Z,57.70
2018-11-14T06:51:43.428Z,47.60
2018-11-14T06:54:13.060Z,51.33
2018-11-14T06:56:41.230Z,45.93
2018-11-14T06:59:09.929Z,77.17
2018-11-14T07:01:39.446Z,61.50
2018-11-14T07:04:07.799Z,87.77
2018-11-14T07:06:35.939Z,83.20
2018-11-14T07:09:06.270Z,37.63
2018-11-14T07:11:35.677Z,67.17
2018-11-14T07:14:03.722Z,34.27
2018-11-14T07:16:32.379Z,35.83
2018-11-14T07:19:00.651Z,47.60
2018-11-14T07:21:29.659Z,67.67
2018-11-14T07:23:57.594Z,22.83
2018-11-14T07:26:26.946Z,63.30
2018-11-14T07:28:54.830Z,36.83
2018-11-14T07:31:23.449Z,56.07
2018-11-14T07:33:51.634Z,45.67
2018-11-14T07:36:19.784Z,37.23
2018-11-14T07:38:49.658Z,59.60
2018-11-14T07:41:25.041Z,54.47
2018-11-14T07:43:54.362Z,77.03
2018-11-14T07:46:23.049Z,61.23
2018-11-14T07:48:51.707Z,103.60
2018-11-14T07:51:19.593Z,32.53
2018-11-14T07:53:47.500Z,47.77
2018-11-14T07:56:16.425Z,57.67
2018-11-14T07:58:45.889Z,64.13
2018-11-14T08:01:14.261Z,60.87
2018-11-14T08:03:42.479Z,61.50
2018-11-14T08:06:10.457Z,60.30
2018-11-14T08:08:38.601Z,76.50
2018-11-14T08:11:07.238Z,43.10
2018-11-14T08:13:35.945Z,91.90
2018-11-14T08:16:04.017Z,46.03
2018-11-14T08:18:32.606Z,52.77
2018-11-14T08:21:01.446Z,33.67
2018-11-14T08:23:29.713Z,77.77
2018-11-14T08:25:57.838Z,50.20
2018-11-14T08:28:25.756Z,88.83
2018-11-14T08:30:54.258Z,59.87
2018-11-14T08:33:23.070Z,67.07
2018-11-14T08:35:52.182Z,93.83
2018-11-14T08:38:20.333Z,50.27
2018-11-14T08:40:48.460Z,23.67
2018-11-14T08:43:17.040Z,19.00
2018-11-14T08:45:45.235Z,71.53
2018-11-14T08:48:14.530Z,24.30
2018-11-14T08:50:42.430Z,39.50
2018-11-14T08:53:11.419Z,32.37
2018-11-14T08:55:39.535Z,60.63
2018-11-14T08:58:11.229Z,171.43
2018-11-14T09:00:39.441Z,125.80
2018-11-14T09:03:09.852Z,120.87
2018-11-14T09:05:37.994Z,37.63
2018-11-14T09:08:06.445Z,46.53
2018-11-14T09:10:34.630Z,45.60
2018-11-14T09:13:03.426Z,23.00
2018-11-14T09:15:31.442Z,15.13
2018-11-14T09:17:59.993Z,14.20
2018-11-14T09:20:28.700Z,14.47
2018-11-14T09:22:56.618Z,7.43
2018-11-14T09:25:27.371Z,11.17
2018-11-14T09:27:55.742Z,27.47
2018-11-14T09:30:25.330Z,20.83
2018-11-14T09:32:54.874Z,9.40
2018-11-14T09:35:23.802Z,22.10
2018-11-14T09:37:53.086Z,9.67
2018-11-14T09:40:22.591Z,31.17
2018-11-14T09:42:50.730Z,39.77
2018-11-14T09:45:20.394Z,19.13
2018-11-14T09:47:48.623Z,107.50
2018-11-14T09:50:22.655Z,65.43
2018-11-14T09:52:53.506Z,156.40
2018-11-14T09:55:21.397Z,50.57
2018-11-14T09:57:49.672Z,65.70
2018-11-14T10:00:21.766Z,38.17
2018-11-14T10:02:56.525Z,36.93
2018-11-14T10:05:25.152Z,13.03
2018-11-14T10:07:53.402Z,11.27
2018-11-14T10:10:23.240Z,18.13
2018-11-14T10:12:51.523Z,39.20
2018-11-14T10:15:20.722Z,31.83
2018-11-14T10:17:50.374Z,13.50
2018-11-14T10:20:20.237Z,19.20
2018-11-14T10:22:48.539Z,20.97
2018-11-14T10:25:17.110Z,18.20
2018-11-14T10:27:45.867Z,57.63
2018-11-14T10:30:17.108Z,23.00
2018-11-14T10:32:52.749Z,15.70
2018-11-14T10:35:21.866Z,26.17
2018-11-14T10:37:50.046Z,12.57
2018-11-14T10:40:22.467Z,14.90
2018-11-14T10:42:51.465Z,8.97
2018-11-14T10:45:21.518Z,22.53
2018-11-14T10:47:49.422Z,12.37
2018-11-14T10:50:18.940Z,13.07
2018-11-14T10:52:47.092Z,11.40
2018-11-14T10:55:15.955Z,10.53
2018-11-14T10:57:44.287Z,11.43
2018-11-14T11:00:20.971Z,8.80
2018-11-14T11:02:55.160Z,9.93
2018-11-14T11:05:32.661Z,8.70
2018-11-14T11:08:06.787Z,7.90
2018-11-14T11:10:40.406Z,18.00
2018-11-14T11:13:10.507Z,13.03
2018-11-14T11:15:44.906Z,11.43
2018-11-14T11:18:14.878Z,11.73
2018-11-14T11:20:44.119Z,12.07
2018-11-14T11:23:12.776Z,9.63
2018-11-14T11:25:41.444Z,8.40
2018-11-14T11:28:10.259Z,7.73
2018-11-14T11:30:39.068Z,10.33
2018-11-14T11:33:07.400Z,8.27
2018-11-14T11:35:35.607Z,10.87
2018-11-14T11:38:04.107Z,10.47
2018-11-14T11:40:33.670Z,11.20
2018-11-14T11:43:02.466Z,11.00
2018-11-14T11:45:32.103Z,12.47
2018-11-14T11:48:00.038Z,10.80
2018-11-14T11:50:29.528Z,11.73
2018-11-14T11:52:58.144Z,11.07
2018-11-14T11:55:26.315Z,12.07
2018-11-14T11:57:54.845Z,8.43
2018-11-14T12:00:23.151Z,10.67
2018-11-14T12:02:51.192Z,10.80
2018-11-14T12:05:19.449Z,11.27
2018-11-14T12:07:48.868Z,14.50
2018-11-14T12:10:17.174Z,12.50
2018-11-14T12:12:46.375Z,10.50
2018-11-14T12:15:15.528Z,9.57
2018-11-14T12:17:43.844Z,14.47
2018-11-14T12:20:13.118Z,9.83
2018-11-14T12:22:41.831Z,13.27
2018-11-14T12:25:11.057Z,12.60
2018-11-14T12:27:39.639Z,12.27
2018-11-14T12:30:11.441Z,8.83
2018-11-14T12:32:40.470Z,7.10
2018-11-14T12:35:09.927Z,9.83
2018-11-14T12:37:38.560Z,9.97
2018-11-14T12:40:08.075Z,9.07
2018-11-14T12:42:36.357Z,8.67
2018-11-14T12:45:05.220Z,9.47
2018-11-14T12:47:33.365Z,9.00
2018-11-14T12:50:01.386Z,10.90
2018-11-14T12:52:29.547Z,7.80
2018-11-14T12:54:57.506Z,8.83
2018-11-14T12:57:25.518Z,7.60
2018-11-14T12:59:54.201Z,8.53
2018-11-14T13:02:22.379Z,9.37
2018-11-14T13:04:51.993Z,7.87
2018-11-14T13:07:20.460Z,9.20
2018-11-14T13:09:50.468Z,7.37
2018-11-14T13:12:18.750Z,7.40
2018-11-14T13:14:46.891Z,7.40
2018-11-14T13:17:16.001Z,7.63
2018-11-14T13:19:45.696Z,8.13
2018-11-14T13:22:14.547Z,7.43
2018-11-14T13:24:42.706Z,7.97
2018-11-14T13:27:12.084Z,8.27
2018-11-14T13:29:40.343Z,6.87
2018-11-14T13:32:09.158Z,8.40
2018-11-14T13:34:37.364Z,9.03
2018-11-14T13:37:06.690Z,8.40
2018-11-14T13:39:36.238Z,8.57
2018-11-14T13:42:06.544Z,6.53
2018-11-14T13:44:34.785Z,8.50
2018-11-14T13:47:02.931Z,9.30
2018-11-14T13:49:31.023Z,8.70
2018-11-14T13:52:00.828Z,7.57
2018-11-14T13:54:30.066Z,6.75
2018-11-14T13:56:59.545Z,6.60
2018-11-14T13:59:27.458Z,6.73
2018-11-14T14:01:55.967Z,7.63
2018-11-14T14:04:24.118Z,5.70
2018-11-14T14:06:52.077Z,6.03
2018-11-14T14:09:20.446Z,6.80
2018-11-14T14:11:50.057Z,5.67
2018-11-14T14:14:19.166Z,6.97
2018-11-14T14:16:47.099Z,5.07
2018-11-14T14:19:15.670Z,6.43
2018-11-14T14:21:43.788Z,9.70
2018-11-14T14:24:11.929Z,6.37
2018-11-14T14:26:40.085Z,6.40
2018-11-14T14:29:09.080Z,6.63
2018-11-14T14:31:38.473Z,7.17
2018-11-14T14:34:07.180Z,7.67
2018-11-14T14:36:35.330Z,8.60
2018-11-14T14:39:04.931Z,8.80
2018-11-14T14:41:33.262Z,5.70
2018-11-14T14:44:03.712Z,5.40
2018-11-14T14:46:31.952Z,5.97
2018-11-14T14:49:00.835Z,5.43
2018-11-14T14:51:28.899Z,5.70
2018-11-14T14:53:58.382Z,6.77
2018-11-14T14:56:27.646Z,6.03
2018-11-14T14:58:55.474Z,6.70
2018-11-14T15:01:23.627Z,7.23
2018-11-14T15:03:51.763Z,7.50
2018-11-14T15:06:19.690Z,8.37
2018-11-14T15:08:48.875Z,5.73
2018-11-14T15:11:17.022Z,7.17
2018-11-14T15:13:46.538Z,4.73
2018-11-14T15:16:14.677Z,5.63
2018-11-14T15:18:42.807Z,8.20
2018-11-14T15:21:11.108Z,6.00
2018-11-14T15:23:39.175Z,9.37
2018-11-14T15:26:07.322Z,5.07
2018-11-14T15:28:35.486Z,8.50
2018-11-14T15:31:05.594Z,8.13
2018-11-14T15:33:35.445Z,7.43
2018-11-14T15:36:03.638Z,11.40
2018-11-14T15:38:31.718Z,7.83
2018-11-14T15:40:59.859Z,5.33
2018-11-14T15:43:27.986Z,7.33
2018-11-14T15:45:56.151Z,7.47
2018-11-14T15:48:26.038Z,6.83
2018-11-14T15:50:55.679Z,5.93
2018-11-14T15:53:25.826Z,9.47
2018-11-14T15:55:53.870Z,7.10
2018-11-14T15:58:24.605Z,5.63
2018-11-14T16:00:53.283Z,4.10
2018-11-14T16:03:21.190Z,8.37
2018-11-14T16:05:50.602Z,7.20
2018-11-14T16:08:21.495Z,7.23
2018-11-14T16:10:50.078Z,5.50
2018-11-14T16:13:18.219Z,4.90
2018-11-14T16:15:46.346Z,5.70
2018-11-14T16:18:14.519Z,7.65
2018-11-14T16:20:42.618Z,6.07
2018-11-14T16:23:10.530Z,9.43
2018-11-14T16:25:39.737Z,11.47
2018-11-14T16:28:08.945Z,14.93
2018-11-14T16:30:37.920Z,18.50
2018-11-14T16:33:07.318Z,18.77
2018-11-14T16:35:37.175Z,13.67
2018-11-14T16:38:05.684Z,10.60
2018-11-14T16:40:34.517Z,14.73
2018-11-14T16:43:04.413Z,16.10
2018-11-14T16:45:35.221Z,16.33
2018-11-14T16:48:04.385Z,12.93
2018-11-14T16:50:32.573Z,10.07
2018-11-14T16:53:00.708Z,10.77
2018-11-14T16:55:30.867Z,14.30
2018-11-14T16:58:00.473Z,9.70
2018-11-14T17:00:30.845Z,9.77
2018-11-14T17:02:59.222Z,8.53
2018-11-14T17:05:29.938Z,9.97
2018-11-14T17:07:58.078Z,9.17
2018-11-14T17:10:27.907Z,10.60
2018-11-14T17:12:58.459Z,10.10
2018-11-14T17:15:27.255Z,9.80
2018-11-14T17:17:55.175Z,12.23
2018-11-14T17:20:23.691Z,11.17
2018-11-14T17:22:52.827Z,12.63
2018-11-14T17:25:22.023Z,11.77
2018-11-14T17:27:51.056Z,14.13
2018-11-14T17:30:21.626Z,18.33
2018-11-14T17:32:50.016Z,17.70
2018-11-14T17:35:18.625Z,15.57
2018-11-14T17:37:47.071Z,9.20
2018-11-14T17:40:20.363Z,11.63
2018-11-14T17:42:49.907Z,8.57
2018-11-14T17:45:21.516Z,7.33
2018-11-14T17:47:50.203Z,10.33
2018-11-14T17:50:20.275Z,14.87
2018-11-14T17:52:49.330Z,15.93
2018-11-14T17:55:18.609Z,17.93
2018-11-14T17:57:47.872Z,18.90
2018-11-14T18:00:18.489Z,24.27
2018-11-14T18:02:46.892Z,25.73
2018-11-14T18:05:17.135Z,33.30
2018-11-14T18:07:46.278Z,35.80
2018-11-14T18:10:15.762Z,33.97
2018-11-14T18:12:44.749Z,43.10
2018-11-14T18:15:13.014Z,33.60
2018-11-14T18:17:42.086Z,70.57
2018-11-14T18:20:14.798Z,45.07
2018-11-14T18:22:44.834Z,38.67
2018-11-14T18:25:13.220Z,38.23
2018-11-14T18:27:41.377Z,38.97
2018-11-14T18:30:15.180Z,39.37
2018-11-14T18:32:43.516Z,36.80
2018-11-14T18:35:14.939Z,43.77
2018-11-14T18:37:43.823Z,39.87
2018-11-14T18:40:13.918Z,41.88
2018-11-14T18:42:43.095Z,40.57
2018-11-14T18:45:12.754Z,47.70
2018-11-14T18:47:41.219Z,39.73
2018-11-14T18:50:09.909Z,36.93
2018-11-14T18:52:37.821Z,37.20
2018-11-14T18:55:07.849Z,41.40
2018-11-14T18:57:38.072Z,38.43
2018-11-14T19:00:09.530Z,34.50
2018-11-14T19:02:38.662Z,36.77
2018-11-14T19:05:08.620Z,27.03
2018-11-14T19:07:37.094Z,38.60
2018-11-14T19:10:05.769Z,37.87
2018-11-14T19:12:33.924Z,31.07
2018-11-14T19:15:02.051Z,31.83
2018-11-14T19:17:30.246Z,31.17
2018-11-14T19:19:59.067Z,30.83
2018-11-14T19:22:27.934Z,27.10
2018-11-14T19:24:56.122Z,26.63
2018-11-14T19:27:24.270Z,33.80
2018-11-14T19:29:52.418Z,27.47
2018-11-14T19:32:20.559Z,32.30
2018-11-14T19:34:48.983Z,20.20
2018-11-14T19:37:17.298Z,21.03
2018-11-14T19:39:45.209Z,26.03
2018-11-14T19:42:13.129Z,20.93
2018-11-14T19:44:41.053Z,29.30
2018-11-14T19:47:08.969Z,24.40
2018-11-14T19:49:36.893Z,19.03
2018-11-14T19:52:04.849Z,11.63
2018-11-14T19:54:34.242Z,15.37
2018-11-14T19:57:02.214Z,34.60
2018-11-14T19:59:30.406Z,60.13
2018-11-14T20:01:58.673Z,65.83
2018-11-14T20:04:26.578Z,65.30
2018-11-14T20:06:54.492Z,92.07
2018-11-14T20:09:23.608Z,119.67
2018-11-14T20:11:51.843Z,129.70
2018-11-14T20:14:20.341Z,104.00
2018-11-14T20:16:48.479Z,140.10
2018-11-14T20:19:16.630Z,116.93
2018-11-14T20:21:45.095Z,91.50
2018-11-14T20:24:13.097Z,69.27
2018-11-14T20:26:41.270Z,98.43
2018-11-14T20:29:09.558Z,60.87
2018-11-14T20:31:37.782Z,49.07
2018-11-14T20:34:07.550Z,51.87
2018-11-14T20:36:36.186Z,52.90
2018-11-14T20:39:07.150Z,49.87
2018-11-14T20:41:35.515Z,58.47
2018-11-14T20:44:03.805Z,78.63
2018-11-14T20:46:34.640Z,85.97
2018-11-14T20:49:04.812Z,73.83
2018-11-14T20:51:32.955Z,83.50
2018-11-14T20:54:03.357Z,50.73
2018-11-14T20:56:31.647Z,48.50
2018-11-14T20:58:59.530Z,49.50
2018-11-14T21:01:28.553Z,42.60
2018-11-14T21:03:56.906Z,49.60
2018-11-14T21:11:18.909Z,64.17
2018-11-14T21:13:48.470Z,57.83
2018-11-14T21:16:16.647Z,54.57
2018-11-14T21:18:46.767Z,59.67
2018-11-14T21:21:15.031Z,50.87
2018-11-14T21:23:43.438Z,50.83
2018-11-14T21:26:11.373Z,33.40
2018-11-14T21:28:41.366Z,34.40
2018-11-14T21:31:09.311Z,35.27
2018-11-14T21:33:37.230Z,39.10
2018-11-14T21:36:06.922Z,42.30
2018-11-14T21:38:35.436Z,32.67
2018-11-14T21:41:03.650Z,28.87
2018-11-14T21:43:33.152Z,40.50
2018-11-14T21:46:01.045Z,55.27
2018-11-14T21:48:29.017Z,49.67
2018-11-14T21:50:57.236Z,35.40
2018-11-14T21:53:25.526Z,38.80
2018-11-14T21:55:54.114Z,38.97
2018-11-14T21:58:23.753Z,34.70
2018-11-14T22:00:51.650Z,43.40
2018-11-14T22:03:19.566Z,66.27
2018-11-14T22:05:48.050Z,48.70
2018-11-14T22:08:16.386Z,20.47
2018-11-14T22:10:44.534Z,36.17
2018-11-14T22:13:12.785Z,20.43
2018-11-14T22:15:42.150Z,49.33
2018-11-14T22:18:10.474Z,49.50
2018-11-14T22:20:38.766Z,28.73
2018-11-14T22:23:06.914Z,20.77
2018-11-14T22:25:36.320Z,41.30
2018-11-14T22:28:05.418Z,19.60
2018-11-14T22:30:34.277Z,33.93
2018-11-14T22:33:02.410Z,29.43
2018-11-14T22:35:32.319Z,47.33
2018-11-14T22:38:00.467Z,43.60
2018-11-14T22:40:29.826Z,70.87
2018-11-14T22:42:57.979Z,29.33
2018-11-14T22:45:27.181Z,34.57
2018-11-14T22:47:55.092Z,33.57
2018-11-14T22:50:24.641Z,32.50
2018-11-14T22:52:53.044Z,32.17
2018-11-14T22:55:23.069Z,53.93
2018-11-14T22:57:52.626Z,50.23
2018-11-14T23:00:29.448Z,38.27
2018-11-14T23:03:00.219Z,36.63
2018-11-14T23:05:28.457Z,26.37
2018-11-14T23:07:57.439Z,41.30
2018-11-14T23:10:26.223Z,16.83
2018-11-14T23:12:54.136Z,40.63
2018-11-14T23:15:23.721Z,38.20
2018-11-14T23:17:52.585Z,40.97
2018-11-14T23:20:20.814Z,35.60
2018-11-14T23:22:50.137Z,33.10
2018-11-14T23:25:19.573Z,33.03
2018-11-14T23:27:48.790Z,24.30
2018-11-14T23:30:17.801Z,28.07
2018-11-14T23:32:47.754Z,26.77
2018-11-14T23:35:17.915Z,18.30
2018-11-14T23:37:48.911Z,20.57
2018-11-14T23:40:17.309Z,24.43
2018-11-14T23:42:45.447Z,19.23
2018-11-14T23:45:15.101Z,26.03
2018-11-14T23:47:45.034Z,22.53
2018-11-14T23:50:15.329Z,25.33
2018-11-14T23:52:45.178Z,20.80
2018-11-14T23:55:13.823Z,23.40
2018-11-14T23:57:42.593Z,31.37
